Time;durP1;ratioP1;P1;durP2;ratioP2;P2;SDS_P1;SDS_P2;PMS_P1;PMS_P2;Temp;Humidity;BMP_temperature;BMP_pressure;BME280_temperature;BME280_humidity;BME280_pressure;Samples;Min_cycle;Max_cycle;Signal;HPM_P1;HPM_P2
2021/08/10 00:00:53;;;;;;;3.73;3.40;;;22.20;32.40;;;;;;5054344;28;20255;-66
2021/08/10 00:03:19;;;;;;;3.50;2.77;;;22.30;32.50;;;;;;5054033;28;20172;-66
2021/08/10 00:05:48;;;;;;;3.60;3.13;;;22.20;32.50;;;;;;5054068;28;20184;-65
2021/08/10 00:08:19;;;;;;;3.27;3.07;;;22.20;32.60;;;;;;5054084;28;20229;-66
2021/08/10 00:10:46;;;;;;;3.97;3.00;;;22.20;32.60;;;;;;5054295;28;20415;-65
2021/08/10 00:13:12;;;;;;;3.47;3.07;;;22.20;32.60;;;;;;5053892;28;20440;-65
2021/08/10 00:15:38;;;;;;;2.93;2.70;;;22.20;32.60;;;;;;5053961;28;20441;-66
2021/08/10 00:18:04;;;;;;;3.37;3.17;;;22.20;32.50;;;;;;5054196;28;20458;-66
2021/08/10 00:20:30;;;;;;;3.87;3.63;;;22.20;32.60;;;;;;5054060;28;20212;-66
2021/08/10 00:22:55;;;;;;;3.50;3.20;;;22.20;32.50;;;;;;5054044;28;20933;-65
2021/08/10 00:25:21;;;;;;;3.60;3.30;;;22.20;32.60;;;;;;5053510;28;20168;-65
2021/08/10 00:27:46;;;;;;;3.00;2.80;;;22.20;32.50;;;;;;5053873;28;20195;-66
2021/08/10 00:30:12;;;;;;;3.63;3.43;;;22.20;32.60;;;;;;5053662;28;20176;-66
2021/08/10 00:32:38;;;;;;;3.90;3.57;;;22.20;32.50;;;;;;5053863;28;20187;-66
2021/08/10 00:35:03;;;;;;;3.37;3.00;;;22.20;32.50;;;;;;5053441;28;20568;-65
2021/08/10 00:37:29;;;;;;;2.97;2.77;;;22.20;32.50;;;;;;5053679;28;20212;-66
2021/08/10 00:39:54;;;;;;;3.43;3.17;;;22.20;32.50;;;;;;5035719;28;20762;-65
2021/08/10 00:42:20;;;;;;;3.03;2.83;;;22.20;32.60;;;;;;5053561;28;20670;-66
2021/08/10 00:44:46;;;;;;;3.47;3.17;;;22.20;32.50;;;;;;5053208;28;20736;-66
2021/08/10 00:47:12;;;;;;;5.40;3.10;;;22.20;32.60;;;;;;5053523;28;20916;-66
2021/08/10 00:49:37;;;;;;;3.50;3.20;;;22.20;32.60;;;;;;5053292;28;20206;-66
2021/08/10 00:52:03;;;;;;;3.20;3.00;;;22.20;32.50;;;;;;5053536;28;20184;-65
2021/08/10 00:54:29;;;;;;;2.80;2.60;;;22.20;32.50;;;;;;5053249;28;20503;-66
2021/08/10 00:56:55;;;;;;;5.43;2.77;;;22.20;32.50;;;;;;5052054;28;20454;-65
2021/08/10 00:59:20;;;;;;;3.13;2.93;;;22.20;32.40;;;;;;5053008;28;20268;-66
2021/08/10 01:01:46;;;;;;;3.27;3.07;;;22.20;32.40;;;;;;5053302;28;21011;-65
2021/08/10 01:04:12;;;;;;;2.80;2.70;;;22.20;32.50;;;;;;5053201;28;20164;-66
2021/08/10 01:06:50;;;;;;;3.13;2.93;;;22.20;32.50;;;;;;5052844;28;20269;-66
2021/08/10 01:09:26;;;;;;;4.07;2.73;;;22.20;32.50;;;;;;5053145;28;20187;-66
2021/08/10 01:12:17;;;;;;;3.53;3.23;;;22.20;32.50;;;;;;5052975;28;20900;-66
2021/08/10 01:14:45;;;;;;;3.50;3.20;;;22.20;32.50;;;;;;5052894;28;20862;-64
2021/08/10 01:17:20;;;;;;;4.40;3.17;;;22.20;32.50;;;;;;5052839;28;20461;-64
2021/08/10 01:20:07;;;;;;;4.60;3.80;;;22.20;32.50;;;;;;5052802;28;20493;-65
2021/08/10 01:22:36;;;;;;;3.43;3.07;;;22.20;32.50;;;;;;5053160;28;20418;-64
2021/08/10 01:25:29;;;;;;;3.50;3.20;;;22.30;32.50;;;;;;5052434;28;20943;-64
2021/08/10 01:31:20;;;;;;;2.93;2.73;;;22.30;32.50;;;;;;5052781;28;20915;-65
2021/08/10 01:33:50;;;;;;;3.17;2.97;;;22.30;32.50;;;;;;5052651;28;20756;-66
2021/08/10 01:36:20;;;;;;;3.53;3.23;;;22.30;32.50;;;;;;5052104;28;20437;-66
2021/08/10 01:38:49;;;;;;;3.20;3.00;;;22.30;32.50;;;;;;5052342;28;20430;-65
2021/08/10 01:41:17;;;;;;;3.40;3.20;;;22.30;32.50;;;;;;5052314;28;20403;-66
2021/08/10 01:43:43;;;;;;;3.00;2.80;;;22.30;32.50;;;;;;5052503;28;20773;-66
2021/08/10 01:46:09;;;;;;;3.00;2.80;;;22.30;32.50;;;;;;5052093;28;20472;-65
2021/08/10 01:48:35;;;;;;;2.80;2.57;;;22.30;32.50;;;;;;5052328;28;20490;-66
2021/08/10 01:51:02;;;;;;;2.90;2.80;;;22.30;32.50;;;;;;5052092;28;20524;-65
2021/08/10 01:53:29;;;;;;;3.33;3.10;;;22.30;32.40;;;;;;5052209;28;20410;-65
2021/08/10 01:55:58;;;;;;;3.47;3.17;;;22.30;32.50;;;;;;5051744;28;20924;-65
2021/08/10 01:58:26;;;;;;;3.20;3.00;;;22.30;32.50;;;;;;5052073;28;20549;-65
2021/08/10 02:00:52;;;;;;;3.27;2.97;;;22.30;32.50;;;;;;5052111;28;20456;-66
2021/08/10 02:03:18;;;;;;;3.23;2.93;;;22.30;32.50;;;;;;5052182;28;20399;-64
2021/08/10 02:05:46;;;;;;;3.03;2.83;;;22.30;32.50;;;;;;5051697;28;20422;-65
2021/08/10 02:08:13;;;;;;;2.33;2.23;;;22.30;32.50;;;;;;5051762;28;20422;-65
2021/08/10 02:10:39;;;;;;;3.67;3.40;;;22.30;32.50;;;;;;5051927;28;20414;-65
2021/08/10 02:13:06;;;;;;;3.77;2.80;;;22.30;32.60;;;;;;5051803;28;20406;-66
2021/08/10 02:15:32;;;;;;;3.43;3.10;;;22.30;32.60;;;;;;5051644;28;20494;-66
2021/08/10 02:17:58;;;;;;;3.00;2.80;;;22.30;32.70;;;;;;5051768;28;20595;-66
2021/08/10 02:20:23;;;;;;;3.07;2.87;;;22.30;32.80;;;;;;5051680;28;20403;-66
2021/08/10 02:22:50;;;;;;;4.37;3.97;;;22.30;32.70;;;;;;5051686;28;20210;-65
2021/08/10 02:25:22;;;;;;;3.40;3.20;;;22.30;32.60;;;;;;5051500;28;20203;-66
2021/08/10 02:27:50;;;;;;;3.30;3.00;;;22.30;32.50;;;;;;5051733;28;20415;-66
2021/08/10 02:30:20;;;;;;;3.20;2.90;;;22.30;32.70;;;;;;5051678;28;20984;-66
2021/08/10 02:32:47;;;;;;;2.93;2.73;;;22.30;32.70;;;;;;5051573;28;20410;-66
2021/08/10 02:35:18;;;;;;;3.30;3.00;;;22.30;32.90;;;;;;5051475;28;20445;-66
2021/08/10 02:37:45;;;;;;;2.67;2.57;;;22.30;32.90;;;;;;5051579;28;20457;-66
2021/08/10 02:40:12;;;;;;;3.00;2.90;;;22.20;32.80;;;;;;5051790;28;20406;-66
2021/08/10 02:42:39;;;;;;;3.17;2.80;;;22.20;32.90;;;;;;5051609;28;20456;-66
2021/08/10 02:45:05;;;;;;;3.30;3.10;;;22.20;32.90;;;;;;5051445;28;20909;-66
2021/08/10 02:47:31;;;;;;;3.00;2.80;;;22.20;32.90;;;;;;5051342;28;20525;-66
2021/08/10 02:49:57;;;;;;;2.83;2.60;;;22.20;33.60;;;;;;5051589;28;20498;-66
2021/08/10 02:52:23;;;;;;;2.93;2.60;;;22.20;32.90;;;;;;5051605;28;20720;-65
2021/08/10 02:54:48;;;;;;;2.53;2.30;;;22.20;32.90;;;;;;5051284;28;20421;-64
2021/08/10 02:57:27;;;;;;;3.67;3.10;;;22.20;32.90;;;;;;5051248;28;20200;-64
2021/08/10 03:00:10;;;;;;;3.20;2.70;;;22.20;33.00;;;;;;5051502;28;20219;-64
2021/08/10 03:02:42;;;;;;;3.07;2.80;;;22.20;33.00;;;;;;5051506;28;20407;-65
2021/08/10 03:05:27;;;;;;;2.90;2.70;;;22.20;33.10;;;;;;5051178;28;20409;-64
2021/08/10 03:07:58;;;;;;;2.80;2.60;;;22.20;33.00;;;;;;5051261;28;20931;-65
2021/08/10 03:10:27;;;;;;;2.73;2.60;;;22.20;33.10;;;;;;5051174;28;20418;-65
2021/08/10 03:12:55;;;;;;;3.30;3.10;;;22.20;33.10;;;;;;5051295;28;20481;-65
2021/08/10 03:15:27;;;;;;;3.23;3.03;;;22.20;33.10;;;;;;5051040;28;20418;-66
2021/08/10 03:17:56;;;;;;;3.10;2.90;;;22.20;33.10;;;;;;5051234;28;20486;-65
2021/08/10 03:20:23;;;;;;;2.10;2.00;;;22.20;33.20;;;;;;5052889;28;20406;-66
2021/08/10 03:22:49;;;;;;;3.27;3.07;;;22.20;33.20;;;;;;5054912;28;20403;-66
2021/08/10 03:25:18;;;;;;;3.00;2.80;;;22.20;33.30;;;;;;5054831;28;20429;-65
2021/08/10 03:27:45;;;;;;;2.57;2.47;;;22.10;33.20;;;;;;5055037;28;20414;-65
2021/08/10 03:30:13;;;;;;;3.20;2.80;;;22.20;33.30;;;;;;5055048;28;20826;-65
2021/08/10 03:32:39;;;;;;;2.90;2.73;;;22.10;33.20;;;;;;5055085;28;20406;-66
2021/08/10 03:35:06;;;;;;;3.00;2.80;;;22.10;33.30;;;;;;5054524;28;20572;-66
2021/08/10 03:37:33;;;;;;;3.27;3.07;;;22.10;33.30;;;;;;5054601;28;20457;-65
2021/08/10 03:40:00;;;;;;;4.50;2.80;;;22.20;33.30;;;;;;5054661;28;20493;-66
2021/08/10 03:42:26;;;;;;;3.20;2.90;;;22.10;33.30;;;;;;5054782;28;20415;-66
2021/08/10 03:44:53;;;;;;;3.63;3.40;;;22.20;33.30;;;;;;5054416;28;20398;-66
2021/08/10 03:47:19;;;;;;;4.90;2.87;;;22.10;33.20;;;;;;5054709;28;20464;-65
2021/08/10 03:49:47;;;;;;;3.77;3.47;;;22.10;33.30;;;;;;5054413;28;20813;-66
2021/08/10 03:52:14;;;;;;;5.07;2.67;;;22.10;33.40;;;;;;5054624;28;20646;-66
2021/08/10 03:54:41;;;;;;;3.43;3.13;;;22.10;33.40;;;;;;5054115;28;20952;-64
2021/08/10 03:57:10;;;;;;;3.10;2.87;;;22.10;33.40;;;;;;5054437;28;20480;-65
2021/08/10 03:59:36;;;;;;;3.23;2.93;;;22.10;33.40;;;;;;5054177;28;20524;-65
2021/08/10 04:02:02;;;;;;;3.70;2.70;;;22.10;33.40;;;;;;5054462;28;20410;-64
2021/08/10 04:04:29;;;;;;;3.20;3.00;;;22.10;33.40;;;;;;5054096;28;20456;-64
2021/08/10 04:06:54;;;;;;;4.40;2.87;;;22.10;33.40;;;;;;5054561;28;20434;-65
2021/08/10 04:09:21;;;;;;;3.60;3.30;;;22.10;33.50;;;;;;5054086;28;20951;-66
2021/08/10 04:11:48;;;;;;;3.53;3.23;;;22.10;33.50;;;;;;5054389;28;20184;-65
2021/08/10 04:14:14;;;;;;;3.03;2.83;;;22.10;33.40;;;;;;5054026;28;20559;-67
2021/08/10 04:16:53;;;;;;;3.40;3.20;;;22.10;34.10;;;;;;5047768;28;20968;-66
2021/08/10 04:19:21;;;;;;;3.70;3.40;;;22.10;33.40;;;;;;5053594;28;20493;-65
2021/08/10 04:21:46;;;;;;;3.50;3.30;;;22.10;33.40;;;;;;5053984;28;20453;-68
2021/08/10 04:24:12;;;;;;;3.37;3.07;;;22.10;33.40;;;;;;5053441;28;20442;-65
2021/08/10 04:26:37;;;;;;;3.30;3.10;;;22.10;33.50;;;;;;5053411;28;20199;-66
2021/08/10 04:29:04;;;;;;;3.33;3.07;;;22.10;33.40;;;;;;5053807;28;20184;-66
2021/08/10 04:31:30;;;;;;;4.83;4.07;;;22.10;33.50;;;;;;5053060;28;20172;-66
2021/08/10 04:33:56;;;;;;;2.73;2.60;;;22.10;33.40;;;;;;5053565;28;20417;-70
2021/08/10 04:36:21;;;;;;;4.20;2.77;;;22.10;33.50;;;;;;5036219;28;20451;-66
2021/08/10 04:38:47;;;;;;;3.10;2.90;;;22.10;33.50;;;;;;5013411;28;20207;-65
2021/08/10 04:41:12;;;;;;;3.50;2.97;;;22.10;33.60;;;;;;5013615;28;20174;-66
2021/08/10 04:43:38;;;;;;;3.23;2.93;;;22.10;33.70;;;;;;5012765;28;20231;-65
2021/08/10 04:46:04;;;;;;;5.73;2.97;;;22.10;33.50;;;;;;5012781;28;20193;-66
2021/08/10 04:48:29;;;;;;;3.43;2.93;;;22.10;33.50;;;;;;5019650;28;20609;-66
2021/08/10 04:50:55;;;;;;;7.30;4.10;;;22.10;33.50;;;;;;5032958;28;20176;-65
2021/08/10 04:53:20;;;;;;;3.27;2.97;;;22.10;33.40;;;;;;5032720;28;20177;-65
2021/08/10 04:55:46;;;;;;;3.00;2.80;;;22.10;34.10;;;;;;5032895;28;20192;-65
2021/08/10 04:58:12;;;;;;;3.70;2.80;;;22.10;33.50;;;;;;5032338;28;20598;-65
2021/08/10 05:00:37;;;;;;;5.90;2.80;;;22.10;33.50;;;;;;5031451;28;20534;-66
2021/08/10 05:03:03;;;;;;;3.00;2.80;;;22.10;33.60;;;;;;5031899;28;20213;-66
2021/08/10 05:05:28;;;;;;;3.40;3.10;;;22.10;33.60;;;;;;5032944;28;20761;-66
2021/08/10 05:07:54;;;;;;;3.33;3.07;;;22.10;33.60;;;;;;5032084;28;20538;-66
2021/08/10 05:10:19;;;;;;;3.47;3.17;;;22.10;33.50;;;;;;5030936;28;20643;-66
2021/08/10 05:12:45;;;;;;;4.57;3.63;;;22.10;33.60;;;;;;5031917;28;20184;-66
2021/08/10 05:15:11;;;;;;;3.40;3.20;;;22.00;33.60;;;;;;5032273;28;20179;-66
2021/08/10 05:17:36;;;;;;;3.17;2.97;;;22.10;33.70;;;;;;5042336;28;20701;-65
2021/08/10 05:20:02;;;;;;;3.33;2.80;;;22.10;33.70;;;;;;5052780;28;20541;-66
2021/08/10 05:22:28;;;;;;;3.80;3.03;;;22.10;33.60;;;;;;5052786;28;20459;-66
2021/08/10 05:24:53;;;;;;;3.40;3.10;;;22.10;33.60;;;;;;5052313;28;20411;-66
2021/08/10 05:27:19;;;;;;;3.07;2.87;;;22.00;33.70;;;;;;5052630;28;20269;-68
2021/08/10 05:29:45;;;;;;;3.43;3.13;;;22.10;33.70;;;;;;5052474;28;20179;-70
2021/08/10 05:32:10;;;;;;;4.10;3.80;;;22.10;33.70;;;;;;5052282;28;20429;-66
2021/08/10 05:34:38;;;;;;;3.00;2.80;;;22.10;33.70;;;;;;5052501;28;20932;-66
2021/08/10 05:37:04;;;;;;;3.03;2.83;;;22.10;33.80;;;;;;5052346;28;20214;-66
2021/08/10 05:39:29;;;;;;;3.90;3.37;;;22.10;33.80;;;;;;5051786;28;20489;-65
2021/08/10 05:41:54;;;;;;;3.60;3.27;;;22.10;33.90;;;;;;5047018;28;20177;-66
2021/08/10 05:44:20;;;;;;;3.57;3.30;;;22.00;33.80;;;;;;5031934;28;20259;-66
2021/08/10 05:46:46;;;;;;;4.70;3.30;;;22.00;33.90;;;;;;5031375;28;20205;-69
2021/08/10 05:49:11;;;;;;;5.63;3.30;;;22.00;33.90;;;;;;5032233;28;20176;-68
2021/08/10 05:51:37;;;;;;;3.80;3.40;;;22.10;34.00;;;;;;5031339;28;20188;-68
2021/08/10 05:54:03;;;;;;;5.03;3.50;;;22.10;34.00;;;;;;5031856;28;20187;-68
2021/08/10 05:56:28;;;;;;;3.90;3.33;;;22.00;33.90;;;;;;5031528;28;20439;-68
2021/08/10 05:58:54;;;;;;;5.73;3.53;;;22.10;33.90;;;;;;5031608;28;20189;-66
2021/08/10 06:01:19;;;;;;;13.40;3.90;;;22.00;33.90;;;;;;5030794;28;20279;-65
2021/08/10 06:03:45;;;;;;;3.50;3.20;;;22.00;33.90;;;;;;5031080;28;20180;-68
2021/08/10 06:06:10;;;;;;;3.60;3.30;;;22.00;33.90;;;;;;5030861;28;20238;-68
2021/08/10 06:08:36;;;;;;;3.20;3.00;;;22.10;34.00;;;;;;5031306;28;20185;-65
2021/08/10 06:11:01;;;;;;;3.40;3.10;;;22.00;33.80;;;;;;5030903;28;20180;-67
2021/08/10 06:13:27;;;;;;;4.47;3.70;;;22.10;33.90;;;;;;5031305;28;20180;-69
2021/08/10 06:15:54;;;;;;;3.60;3.40;;;22.10;34.00;;;;;;5030202;28;21081;-67
2021/08/10 06:18:20;;;;;;;4.37;3.87;;;22.10;33.80;;;;;;5046285;28;20200;-67
2021/08/10 06:20:45;;;;;;;4.30;2.87;;;22.10;33.90;;;;;;5050843;28;20418;-67
2021/08/10 06:23:11;;;;;;;3.60;3.30;;;22.10;33.90;;;;;;5050354;28;20587;-68
2021/08/10 06:25:37;;;;;;;5.47;3.23;;;22.10;33.90;;;;;;5050138;28;20634;-67
2021/08/10 06:28:02;;;;;;;4.33;3.37;;;22.10;34.00;;;;;;5050779;28;20267;-66
2021/08/10 06:30:28;;;;;;;11.90;4.27;;;22.10;34.00;;;;;;5050294;28;20180;-66
2021/08/10 06:32:53;;;;;;;7.80;4.10;;;22.10;34.10;;;;;;5049495;28;20180;-67
2021/08/10 06:35:19;;;;;;;6.07;3.80;;;22.10;34.00;;;;;;5049934;28;20168;-67
2021/08/10 06:37:44;;;;;;;5.83;4.17;;;22.10;34.00;;;;;;5048834;28;20231;-66
2021/08/10 06:40:10;;;;;;;10.07;4.27;;;22.10;33.80;;;;;;5049887;28;20179;-67
2021/08/10 06:42:36;;;;;;;4.80;4.30;;;22.10;33.80;;;;;;5049235;28;20168;-67
2021/08/10 06:45:02;;;;;;;6.20;4.10;;;22.00;33.80;;;;;;5048835;28;20172;-67
2021/08/10 06:47:28;;;;;;;4.33;3.50;;;22.10;33.70;;;;;;5050515;28;20195;-66
2021/08/10 06:49:54;;;;;;;4.10;3.70;;;22.00;33.60;;;;;;5044348;28;20918;-67
2021/08/10 06:52:20;;;;;;;4.30;3.90;;;22.10;33.70;;;;;;5030854;28;20827;-67
2021/08/10 06:54:45;;;;;;;5.60;3.70;;;22.10;33.70;;;;;;5030022;28;20498;-66
2021/08/10 06:57:11;;;;;;;4.43;4.00;;;22.10;33.70;;;;;;5053260;28;20241;-67
2021/08/10 06:59:37;;;;;;;5.15;4.30;;;22.10;33.70;;;;;;5005916;28;1202942;-66
2021/08/10 07:02:04;;;;;;;4.80;4.23;;;22.10;33.80;;;;;;5054765;28;20180;-66
2021/08/10 07:04:30;;;;;;;6.73;3.97;;;22.10;33.80;;;;;;5043234;28;20782;-66
2021/08/10 07:06:56;;;;;;;6.70;3.60;;;22.10;33.80;;;;;;5054972;28;20431;-66
2021/08/10 07:09:24;;;;;;;8.37;4.17;;;22.10;33.90;;;;;;5055729;28;20187;-66
2021/08/10 07:11:50;;;;;;;4.10;3.80;;;22.10;34.00;;;;;;5055036;28;20208;-67
2021/08/10 07:14:16;;;;;;;7.20;4.30;;;22.10;34.00;;;;;;5055319;28;20453;-67
2021/08/10 07:16:42;;;;;;;6.57;3.90;;;22.10;34.00;;;;;;5054867;28;20210;-67
2021/08/10 07:19:09;;;;;;;6.97;3.67;;;22.10;34.00;;;;;;5054952;28;20501;-67
2021/08/10 07:21:34;;;;;;;5.27;4.40;;;22.10;34.10;;;;;;5054868;28;20402;-67
2021/08/10 07:24:00;;;;;;;8.47;3.40;;;22.10;34.10;;;;;;5054126;28;20467;-67
2021/08/10 07:26:26;;;;;;;5.00;4.50;;;22.10;34.00;;;;;;5054106;28;20196;-67
2021/08/10 07:28:52;;;;;;;4.60;4.27;;;22.10;34.00;;;;;;5054697;28;20176;-67
2021/08/10 07:31:18;;;;;;;5.03;4.00;;;22.10;34.00;;;;;;5054915;28;20815;-67
2021/08/10 07:33:44;;;;;;;5.17;4.67;;;22.10;34.00;;;;;;5054656;28;20433;-67
2021/08/10 07:36:09;;;;;;;4.50;4.07;;;22.10;34.10;;;;;;5054505;28;20423;-67
2021/08/10 07:38:35;;;;;;;3.50;3.20;;;22.10;34.10;;;;;;5054514;28;20215;-66
2021/08/10 07:41:00;;;;;;;4.70;4.33;;;22.10;34.10;;;;;;5054561;28;20176;-66
2021/08/10 07:43:26;;;;;;;3.27;2.97;;;22.20;34.20;;;;;;5054532;28;20229;-67
2021/08/10 07:45:52;;;;;;;8.13;4.03;;;22.20;34.20;;;;;;5054256;28;20314;-67
2021/08/10 07:48:17;;;;;;;4.80;4.03;;;22.20;34.30;;;;;;5054558;28;20168;-67
2021/08/10 07:50:44;;;;;;;3.87;3.57;;;22.20;34.20;;;;;;5049664;28;20238;-66
2021/08/10 07:53:10;;;;;;;6.10;3.60;;;22.20;34.20;;;;;;5034516;28;20268;-67
2021/08/10 07:55:36;;;;;;;3.50;3.27;;;22.20;34.20;;;;;;5032911;28;20415;-67
2021/08/10 07:58:01;;;;;;;4.40;4.00;;;22.20;34.30;;;;;;5037483;28;20461;-66
2021/08/10 08:00:27;;;;;;;4.10;3.70;;;22.20;34.20;;;;;;5054019;28;20421;-65
2021/08/10 08:02:52;;;;;;;3.63;3.20;;;22.20;34.30;;;;;;5052489;28;20179;-66
2021/08/10 08:05:18;;;;;;;4.00;3.63;;;22.20;34.20;;;;;;5051554;28;20571;-67
2021/08/10 08:07:43;;;;;;;3.93;3.50;;;22.20;34.20;;;;;;5052436;28;20200;-66
2021/08/10 08:10:10;;;;;;;3.80;3.50;;;22.20;34.30;;;;;;5052187;28;20442;-66
2021/08/10 08:12:35;;;;;;;3.23;2.93;;;22.20;34.20;;;;;;5053470;28;20203;-67
2021/08/10 08:15:01;;;;;;;3.77;3.50;;;22.20;34.20;;;;;;5053625;28;20411;-67
2021/08/10 08:17:26;;;;;;;3.93;3.53;;;22.20;34.10;;;;;;5054125;28;20239;-69
2021/08/10 08:19:52;;;;;;;3.87;3.30;;;22.20;34.10;;;;;;5054095;28;20545;-68
2021/08/10 08:22:17;;;;;;;3.43;3.13;;;22.20;34.20;;;;;;5034729;28;20553;-66
2021/08/10 08:24:43;;;;;;;3.73;3.43;;;22.20;34.40;;;;;;5053570;28;20176;-69
2021/08/10 08:27:08;;;;;;;3.87;3.47;;;22.20;34.60;;;;;;5053574;28;20204;-70
2021/08/10 08:29:34;;;;;;;4.07;3.77;;;22.30;34.60;;;;;;5054070;28;20176;-69
2021/08/10 08:31:59;;;;;;;3.20;3.00;;;22.30;34.70;;;;;;5053535;28;20227;-69
2021/08/10 08:34:25;;;;;;;3.60;3.40;;;22.30;34.70;;;;;;5053637;28;20179;-69
2021/08/10 08:36:50;;;;;;;4.60;4.20;;;22.30;34.70;;;;;;5053267;28;20225;-68
2021/08/10 08:39:16;;;;;;;3.60;3.30;;;22.30;34.80;;;;;;5053693;28;20179;-68
2021/08/10 08:41:44;;;;;;;3.77;3.47;;;22.40;34.80;;;;;;5049620;28;20686;-68
2021/08/10 08:44:09;;;;;;;4.13;3.70;;;22.30;34.70;;;;;;5042754;28;20523;-68
2021/08/10 08:46:37;;;;;;;6.07;3.30;;;22.40;34.80;;;;;;5053550;28;20433;-67
2021/08/10 08:49:05;;;;;;;4.80;3.63;;;22.40;34.80;;;;;;5052896;28;20191;-68
2021/08/10 08:51:32;;;;;;;4.97;3.30;;;22.40;34.80;;;;;;5053426;28;20402;-67
2021/08/10 08:53:57;;;;;;;3.40;3.20;;;22.40;35.50;;;;;;5053153;28;20403;-69
2021/08/10 08:56:24;;;;;;;7.33;3.00;;;22.40;34.70;;;;;;5052902;28;20967;-67
2021/08/10 08:58:55;;;;;;;3.50;3.30;;;22.40;34.70;;;;;;5053236;28;20195;-67
2021/08/10 09:01:21;;;;;;;3.20;2.90;;;22.40;34.60;;;;;;5053393;28;20417;-68
2021/08/10 09:03:46;;;;;;;5.53;3.20;;;22.40;34.60;;;;;;5052989;28;20904;-68
2021/08/10 09:06:12;;;;;;;7.90;3.37;;;22.50;34.70;;;;;;5052839;28;20408;-69
2021/08/10 09:08:42;;;;;;;4.50;2.73;;;22.50;34.50;;;;;;5052917;28;20623;-69
2021/08/10 09:11:10;;;;;;;3.40;3.17;;;22.50;34.50;;;;;;5052960;28;20226;-70
2021/08/10 09:13:41;;;;;;;3.67;3.47;;;22.50;34.40;;;;;;5052940;28;20556;-67
2021/08/10 09:16:08;;;;;;;3.63;3.33;;;22.40;34.20;;;;;;5052550;28;20430;-68
2021/08/10 09:18:38;;;;;;;4.20;2.90;;;22.50;34.30;;;;;;5052080;28;20490;-68
2021/08/10 09:21:11;;;;;;;4.00;3.33;;;22.50;34.20;;;;;;5052259;28;20909;-68
2021/08/10 09:23:44;;;;;;;2.93;2.77;;;22.50;34.20;;;;;;5053024;28;20418;-70
2021/08/10 09:26:11;;;;;;;3.53;3.23;;;22.50;34.20;;;;;;5052258;28;20426;-68
2021/08/10 09:28:37;;;;;;;3.53;3.10;;;22.50;34.20;;;;;;5052754;28;20418;-69
2021/08/10 09:31:36;;;;;;;3.10;2.90;;;22.50;34.20;;;;;;5052604;28;20398;-69
2021/08/10 09:34:21;;;;;;;4.30;3.03;;;22.50;34.20;;;;;;5052639;28;20417;-69
2021/08/10 09:36:47;;;;;;;3.30;3.10;;;22.50;34.20;;;;;;5052372;28;20454;-71
2021/08/10 09:39:13;;;;;;;3.17;2.97;;;22.50;34.20;;;;;;5052609;28;20406;-68
2021/08/10 09:41:40;;;;;;;2.90;2.70;;;22.50;34.20;;;;;;5051993;28;20422;-68
2021/08/10 09:44:11;;;;;;;3.17;2.90;;;22.50;34.20;;;;;;5053005;28;20213;-69
2021/08/10 09:46:38;;;;;;;3.03;2.80;;;22.50;34.20;;;;;;5052351;28;20473;-69
2021/08/10 09:49:07;;;;;;;2.63;2.43;;;22.50;34.20;;;;;;5052476;28;20459;-71
2021/08/10 09:51:37;;;;;;;3.50;3.30;;;22.50;34.30;;;;;;5038956;28;20782;-70
2021/08/10 09:54:05;;;;;;;3.90;3.50;;;22.50;34.20;;;;;;5013054;28;20408;-68
2021/08/10 09:56:52;;;;;;;2.97;2.77;;;22.50;34.20;;;;;;5012628;28;20432;-69
2021/08/10 09:59:19;;;;;;;3.83;3.53;;;22.50;34.30;;;;;;5012534;28;20511;-68
2021/08/10 10:01:47;;;;;;;3.27;2.97;;;22.50;34.40;;;;;;5012734;28;20409;-67
2021/08/10 10:04:18;;;;;;;3.00;2.80;;;22.50;34.40;;;;;;5012322;28;20412;-68
2021/08/10 10:06:46;;;;;;;2.93;2.70;;;22.50;34.40;;;;;;5019343;28;20533;-68
2021/08/10 10:09:13;;;;;;;3.40;3.10;;;22.50;34.40;;;;;;5051754;28;20406;-68
2021/08/10 10:11:42;;;;;;;3.10;2.80;;;22.50;34.40;;;;;;5052271;28;20509;-68
2021/08/10 10:14:08;;;;;;;3.60;3.30;;;22.50;34.40;;;;;;5051938;28;20548;-68
2021/08/10 10:16:34;;;;;;;3.77;3.37;;;22.50;34.30;;;;;;5051569;28;20521;-67
2021/08/10 10:19:06;;;;;;;3.60;3.13;;;22.50;34.40;;;;;;5051963;28;20752;-67
2021/08/10 10:21:34;;;;;;;4.17;3.53;;;22.50;34.40;;;;;;5033251;28;20502;-66
2021/08/10 10:24:03;;;;;;;3.60;3.30;;;22.50;34.40;;;;;;5031824;28;20412;-68
2021/08/10 10:26:35;;;;;;;3.60;2.97;;;22.50;34.30;;;;;;5031549;28;20805;-68
2021/08/10 10:29:01;;;;;;;3.13;2.93;;;22.50;34.20;;;;;;5031710;28;20438;-68
2021/08/10 10:31:27;;;;;;;3.07;2.87;;;22.50;34.20;;;;;;5031684;28;20408;-67
2021/08/10 10:33:54;;;;;;;3.20;3.00;;;22.50;34.20;;;;;;5031783;28;20176;-68
2021/08/10 10:36:20;;;;;;;3.30;3.10;;;22.50;34.10;;;;;;5031128;28;20486;-67
2021/08/10 10:38:46;;;;;;;4.10;3.47;;;22.50;34.10;;;;;;5046170;28;20498;-68
2021/08/10 10:41:13;;;;;;;3.63;3.43;;;22.50;34.10;;;;;;5051431;28;20611;-67
2021/08/10 10:43:39;;;;;;;6.90;3.63;;;22.50;34.00;;;;;;5052041;28;20164;-67
2021/08/10 10:46:24;;;;;;;3.30;3.10;;;22.50;34.10;;;;;;5051676;28;20832;-66
2021/08/10 10:48:50;;;;;;;3.93;3.27;;;22.50;34.10;;;;;;5051740;28;20172;-67
2021/08/10 10:51:23;;;;;;;3.77;3.47;;;22.60;34.20;;;;;;5051727;28;20540;-67
2021/08/10 10:53:48;;;;;;;3.50;3.20;;;22.60;34.20;;;;;;5051664;28;20342;-68
2021/08/10 10:56:26;;;;;;;3.00;2.70;;;22.60;34.10;;;;;;5051262;28;20840;-68
2021/08/10 10:59:15;;;;;;;3.00;2.80;;;22.60;34.10;;;;;;5050855;28;20218;-67
2021/08/10 11:01:41;;;;;;;3.20;2.90;;;22.60;34.10;;;;;;5033567;28;20773;-68
2021/08/10 11:04:09;;;;;;;3.10;2.80;;;22.60;34.20;;;;;;5051072;28;20407;-68
2021/08/10 11:06:35;;;;;;;3.03;2.83;;;22.60;34.10;;;;;;5051569;28;20558;-71
2021/08/10 11:09:03;;;;;;;3.53;3.23;;;22.60;34.10;;;;;;5051366;28;20402;-68
2021/08/10 11:11:43;;;;;;;3.90;3.13;;;22.60;34.10;;;;;;5033877;28;20446;-68
2021/08/10 11:14:51;;;;;;;4.87;3.40;;;22.60;34.10;;;;;;5030773;28;20399;-69
2021/08/10 11:17:20;;;;;;;3.40;3.10;;;22.60;34.10;;;;;;5028100;28;20499;-69
2021/08/10 11:19:47;;;;;;;3.90;2.83;;;22.60;34.10;;;;;;5039087;28;20418;-67
2021/08/10 11:22:16;;;;;;;3.20;3.00;;;22.60;34.10;;;;;;5036419;28;20457;-68
2021/08/10 11:24:44;;;;;;;4.20;3.80;;;22.60;34.00;;;;;;5050898;28;20802;-68
2021/08/10 11:27:32;;;;;;;3.50;3.30;;;22.60;34.00;;;;;;5051058;28;20469;-69
2021/08/10 11:29:59;;;;;;;5.03;3.10;;;22.70;34.10;;;;;;5050664;28;20913;-68
2021/08/10 11:32:46;;;;;;;3.50;3.20;;;22.70;34.20;;;;;;5050771;28;20521;-67
2021/08/10 11:35:34;;;;;;;3.73;3.43;;;22.70;34.20;;;;;;5050729;28;20410;-68
2021/08/10 11:38:10;;;;;;;3.03;2.87;;;22.70;34.30;;;;;;5050979;28;20458;-68
2021/08/10 11:41:03;;;;;;;3.73;3.43;;;22.70;34.20;;;;;;5051439;28;20428;-66
2021/08/10 11:43:39;;;;;;;3.33;2.93;;;22.70;34.30;;;;;;5054811;28;20501;-68
2021/08/10 11:46:21;;;;;;;4.10;3.80;;;22.70;34.40;;;;;;5047165;28;20434;-68
2021/08/10 11:48:49;;;;;;;2.53;2.43;;;22.70;34.40;;;;;;5054414;28;20418;-68
2021/08/10 11:51:23;;;;;;;2.50;2.40;;;22.70;34.40;;;;;;5054005;28;20422;-68
2021/08/10 11:53:53;;;;;;;3.77;3.47;;;22.70;34.50;;;;;;5054626;28;20405;-68
2021/08/10 11:56:23;;;;;;;3.30;3.10;;;22.70;34.50;;;;;;5054434;28;20446;-69
2021/08/10 11:58:49;;;;;;;3.03;2.83;;;22.70;34.50;;;;;;5054178;28;20488;-68
2021/08/10 12:01:15;;;;;;;4.40;3.00;;;22.70;35.20;;;;;;5054397;28;20403;-70
2021/08/10 12:03:40;;;;;;;3.43;3.23;;;22.70;34.40;;;;;;5054180;28;20168;-69
2021/08/10 12:06:06;;;;;;;2.97;2.77;;;22.70;34.50;;;;;;5054014;28;20426;-69
2021/08/10 12:08:32;;;;;;;4.10;3.37;;;22.70;34.50;;;;;;5054336;28;20673;-67
2021/08/10 12:10:58;;;;;;;3.23;2.93;;;22.70;34.60;;;;;;5054404;28;20541;-65
2021/08/10 12:13:25;;;;;;;3.00;2.73;;;22.70;34.50;;;;;;5054037;28;20418;-66
2021/08/10 12:15:53;;;;;;;3.93;3.67;;;22.70;34.60;;;;;;5053703;28;20283;-67
2021/08/10 12:18:20;;;;;;;3.90;3.50;;;22.70;34.60;;;;;;5053722;28;20533;-69
2021/08/10 12:20:59;;;;;;;3.27;3.07;;;22.70;34.60;;;;;;5053865;28;20402;-68
2021/08/10 12:23:27;;;;;;;4.10;3.33;;;22.70;35.30;;;;;;5054029;28;20486;-68
2021/08/10 12:25:53;;;;;;;3.73;3.50;;;22.70;34.50;;;;;;5053677;28;20688;-69
2021/08/10 12:28:19;;;;;;;3.60;3.30;;;22.70;34.50;;;;;;5053927;28;20403;-68
2021/08/10 12:30:45;;;;;;;3.43;3.23;;;22.70;34.50;;;;;;5053462;28;20425;-70
2021/08/10 12:33:22;;;;;;;3.13;2.93;;;22.80;34.50;;;;;;5054122;28;20571;-67
2021/08/10 12:35:57;;;;;;;3.10;2.90;;;22.80;34.50;;;;;;5053414;28;20291;-66
2021/08/10 12:38:23;;;;;;;3.20;3.00;;;22.80;34.50;;;;;;5053677;28;20544;-69
2021/08/10 12:40:51;;;;;;;4.67;3.37;;;22.80;34.50;;;;;;5053361;28;20466;-69
2021/08/10 12:43:18;;;;;;;3.47;3.10;;;22.80;34.50;;;;;;5053414;28;20792;-70
2021/08/10 12:45:44;;;;;;;3.43;3.17;;;22.80;34.50;;;;;;5052926;28;20426;-67
2021/08/10 12:48:25;;;;;;;3.50;3.20;;;22.80;34.50;;;;;;5053519;28;20962;-68
2021/08/10 12:51:05;;;;;;;3.70;3.50;;;22.80;34.60;;;;;;5046005;28;20266;-67
2021/08/10 12:53:37;;;;;;;3.27;3.07;;;22.80;34.60;;;;;;5019356;28;20470;-68